Time;durP1;ratioP1;P1;durP2;ratioP2;P2;SDS_P1;SDS_P2;PMS_P1;PMS_P2;Temp;Humidity;BMP_temperature;BMP_pressure;BME280_temperature;BME280_humidity;BME280_pressure;Samples;Min_cycle;Max_cycle;Signal;HPM_P1;HPM_P2
2023/03/18 00:01:02;;;;;;;20.40;7.80;;;;;;;12.00;100.00;100968.25;2083876;28;20464;-74
2023/03/18 00:02:25;;;;;;;16.73;7.47;;;;;;;11.97;100.00;100972.63;2086298;28;20068;-74
2023/03/18 00:03:49;;;;;;;18.75;7.85;;;;;;;11.97;100.00;100969.97;2087069;28;20040;-75
2023/03/18 00:05:13;;;;;;;19.30;7.90;;;;;;;11.97;100.00;100966.44;2090835;28;20064;-75
2023/03/18 00:06:37;;;;;;;19.73;7.03;;;;;;;11.97;100.00;100969.97;2102934;28;20109;-74
2023/03/18 00:07:58;;;;;;;19.55;7.38;;;;;;;11.96;100.00;100973.50;2096032;28;20860;-74
2023/03/18 00:09:21;;;;;;;24.42;8.48;;;;;;;11.97;100.00;100964.69;2090911;28;20143;-75
2023/03/18 00:10:44;;;;;;;17.58;7.18;;;;;;;11.98;100.00;100977.06;2094515;28;20524;-74
2023/03/18 00:12:07;;;;;;;17.25;8.10;;;;;;;11.98;100.00;100970.88;2094827;28;20079;-73
2023/03/18 00:13:28;;;;;;;17.92;7.30;;;;;;;11.98;100.00;100970.88;2088743;28;20052;-74
2023/03/18 00:14:51;;;;;;;15.70;6.85;;;;;;;11.99;100.00;100972.66;2089357;28;20087;-74
2023/03/18 00:16:13;;;;;;;22.25;8.60;;;;;;;11.98;100.00;100968.22;2086068;28;20037;-74
2023/03/18 00:17:36;;;;;;;15.85;6.15;;;;;;;11.98;100.00;100978.81;2087295;28;20212;-74
2023/03/18 00:19:00;;;;;;;14.20;6.20;;;;;;;11.96;100.00;100969.97;2090916;28;20052;-73
2023/03/18 00:20:37;;;;;;;16.98;7.30;;;;;;;11.97;100.00;100964.69;2094531;28;20102;-73
2023/03/18 00:21:59;;;;;;;20.50;6.95;;;;;;;11.96;100.00;100967.31;2087941;28;20084;-73
2023/03/18 00:23:21;;;;;;;17.20;7.40;;;;;;;11.98;100.00;100960.28;2092796;28;20041;-74
2023/03/18 00:24:43;;;;;;;;;;;;;;;11.92;100.00;100950.53;2083821;28;20608;-74
2023/03/18 00:26:05;;;;;;;20.98;7.63;;;;;;;11.92;100.00;100950.53;2090113;28;19925;-72
2023/03/18 00:27:28;;;;;;;;;;;;;;;11.90;100.00;100962.84;2082569;28;20057;-73
2023/03/18 00:28:49;;;;;;;17.65;7.47;;;;;;;11.92;100.00;100962.88;2081603;28;19920;-73
2023/03/18 00:30:13;;;;;;;16.65;6.85;;;;;;;11.94;100.00;100954.09;2078946;28;20630;-72
2023/03/18 00:31:37;;;;;;;14.20;7.30;;;;;;;11.96;100.00;100952.31;2084901;28;20053;-73
2023/03/18 00:32:59;;;;;;;17.23;7.88;;;;;;;11.97;100.00;100959.41;2085502;28;20165;-73
2023/03/18 00:34:21;;;;;;;20.67;8.18;;;;;;;11.97;100.00;100946.19;2077869;28;20045;-74
2023/03/18 00:35:45;;;;;;;18.35;7.45;;;;;;;12.00;100.00;100952.38;2075015;28;20083;-73
2023/03/18 00:37:09;;;;;;;18.83;7.10;;;;;;;12.02;100.00;100953.25;2096970;28;20078;-73
2023/03/18 00:38:30;;;;;;;19.98;7.70;;;;;;;12.03;100.00;100957.69;2088521;28;20041;-73
2023/03/18 00:39:53;;;;;;;18.42;7.28;;;;;;;12.02;100.00;100954.16;2095018;28;20067;-74
2023/03/18 00:41:15;;;;;;;17.13;7.68;;;;;;;12.02;100.00;100947.97;2101430;28;20056;-73
2023/03/18 00:42:46;;;;;;;15.65;6.63;;;;;;;12.03;100.00;100944.47;2091699;28;20040;-73
2023/03/18 00:44:08;;;;;;;16.05;7.43;;;;;;;12.03;100.00;100941.81;2086837;28;20509;-73
2023/03/18 00:45:30;;;;;;;19.27;8.90;;;;;;;12.05;100.00;100948.03;2088437;28;20177;-73
2023/03/18 00:46:52;;;;;;;13.48;6.25;;;;;;;12.02;100.00;100946.22;2085549;28;20048;-73
2023/03/18 00:48:15;;;;;;;19.20;7.75;;;;;;;12.02;100.00;100940.94;2091399;28;20048;-74
2023/03/18 00:49:37;;;;;;;20.48;8.63;;;;;;;12.03;100.00;100947.13;2084668;28;20419;-72
2023/03/18 00:51:00;;;;;;;21.40;8.82;;;;;;;12.03;100.00;100949.75;2084838;28;20037;-73
2023/03/18 00:52:24;;;;;;;20.05;7.30;;;;;;;12.00;100.00;100947.09;2084477;28;20048;-72
2023/03/18 00:53:50;;;;;;;23.70;9.02;;;;;;;12.00;100.00;100941.81;2087547;28;20497;-72
2023/03/18 00:55:12;;;;;;;15.98;7.60;;;;;;;11.98;100.00;100942.66;2085303;28;20090;-73
2023/03/18 00:56:37;;;;;;;19.10;6.85;;;;;;;12.02;100.00;100947.97;2079888;28;20554;-73
2023/03/18 00:57:59;;;;;;;14.15;7.20;;;;;;;12.01;100.00;100943.59;2085771;28;20056;-73
2023/03/18 00:59:22;;;;;;;18.23;6.80;;;;;;;12.02;100.00;100946.22;2084596;28;20051;-73
2023/03/18 01:00:44;;;;;;;15.70;6.53;;;;;;;12.03;100.00;100939.19;2087502;28;20224;-72
2023/03/18 01:02:07;;;;;;;18.45;6.72;;;;;;;12.05;100.00;100948.91;2085542;28;20143;-72
2023/03/18 01:03:29;;;;;;;20.15;6.40;;;;;;;12.07;100.00;100941.00;2090797;28;20056;-72
2023/03/18 01:04:52;;;;;;;14.50;6.80;;;;;;;12.09;100.00;100936.59;2080802;28;20052;-73
2023/03/18 01:06:16;;;;;;;17.70;7.63;;;;;;;12.11;100.00;100937.53;2077690;28;20415;-73
2023/03/18 01:07:40;;;;;;;21.15;7.82;;;;;;;12.11;100.00;100938.41;2090185;28;20079;-73
2023/03/18 01:09:03;;;;;;;18.13;7.32;;;;;;;12.11;100.00;100937.53;2082316;28;20049;-73
2023/03/18 01:10:26;;;;;;;15.52;5.72;;;;;;;12.06;100.00;100932.19;2084767;28;20144;-72
2023/03/18 01:11:47;;;;;;;23.65;9.73;;;;;;;12.01;100.00;100933.00;2082217;28;20509;-72
2023/03/18 01:13:10;;;;;;;18.33;6.03;;;;;;;11.96;100.00;100928.53;2088307;28;20067;-72
2023/03/18 01:14:35;;;;;;;11.65;5.50;;;;;;;11.93;100.00;100925.84;2079086;28;20046;-72
2023/03/18 01:15:58;;;;;;;9.27;4.60;;;;;;;11.91;100.00;100924.03;2077228;28;20144;-71
2023/03/18 01:17:19;;;;;;;14.63;5.65;;;;;;;11.92;100.00;100928.47;2074297;28;20049;-72
2023/03/18 01:18:42;;;;;;;13.60;7.05;;;;;;;11.93;100.00;100936.44;2085235;28;20044;-72
2023/03/18 01:20:04;;;;;;;13.43;7.13;;;;;;;11.94;100.00;100940.88;2079614;28;20549;-72
2023/03/18 01:21:31;;;;;;;12.27;5.13;;;;;;;11.95;100.00;100931.13;2084133;28;20037;-72
2023/03/18 01:22:55;;;;;;;15.73;5.53;;;;;;;11.96;100.00;100920.59;2083839;28;20485;-71
2023/03/18 01:24:18;;;;;;;13.98;4.95;;;;;;;11.98;100.00;100921.50;2084281;28;20106;-71
2023/03/18 01:25:40;;;;;;;10.55;4.38;;;;;;;12.00;100.00;100915.34;2083750;28;20068;-71
2023/03/18 01:27:02;;;;;;;11.85;4.53;;;;;;;12.01;100.00;100912.72;2085727;28;20576;-72
2023/03/18 01:28:26;;;;;;;14.18;5.45;;;;;;;12.04;100.00;100898.63;2077241;28;20316;-72
2023/03/18 01:29:48;;;;;;;14.13;5.30;;;;;;;12.07;100.00;100920.72;2074709;28;20609;-72
2023/03/18 01:31:16;;;;;;;14.80;5.40;;;;;;;12.09;100.00;100907.50;2081184;28;20048;-71
2023/03/18 01:32:40;;;;;;;15.52;5.47;;;;;;;12.10;100.00;100910.16;2077583;28;20108;-72
2023/03/18 01:34:02;;;;;;;;;;;;;;;12.08;100.00;100908.41;2085073;28;20568;-72
2023/03/18 01:35:32;;;;;;;15.75;5.35;;;;;;;12.11;100.00;100913.69;2086763;28;20003;-71
2023/03/18 01:36:56;;;;;;;;;;;;;;;12.08;100.00;100906.59;2091306;28;20040;-71
2023/03/18 01:38:23;;;;;;;15.18;6.05;;;;;;;12.09;100.00;100911.03;2092935;28;19951;-72
2023/03/18 01:39:45;;;;;;;16.08;6.78;;;;;;;12.12;100.00;100911.09;2082158;28;20045;-72
2023/03/18 01:41:16;;;;;;;12.50;7.13;;;;;;;12.16;100.00;100910.22;2084849;28;20044;-71
2023/03/18 01:42:37;;;;;;;13.55;6.00;;;;;;;12.20;100.00;100917.34;2083181;28;20130;-72
2023/03/18 01:44:03;;;;;;;16.10;5.63;;;;;;;12.23;100.00;100913.84;2085190;28;20041;-72
2023/03/18 01:45:27;;;;;;;14.38;6.15;;;;;;;12.26;100.00;100906.84;2080774;28;20500;-72
2023/03/18 01:46:54;;;;;;;18.77;5.85;;;;;;;12.28;100.00;100917.41;2086034;28;20098;-72
2023/03/18 01:48:18;;;;;;;20.83;6.00;;;;;;;12.27;100.00;100910.38;2094311;28;20105;-72
2023/03/18 01:49:45;;;;;;;18.67;5.30;;;;;;;12.25;100.00;100920.94;2084106;28;20135;-72
2023/03/18 01:51:12;;;;;;;22.08;6.15;;;;;;;12.24;100.00;100911.22;2084002;28;20402;-77
2023/03/18 01:52:36;;;;;;;18.08;6.15;;;;;;;12.19;100.00;100912.94;2085709;28;20045;-77
2023/03/18 01:54:02;;;;;;;22.88;6.25;;;;;;;12.12;100.00;100919.03;2084612;28;20464;-76
2023/03/18 01:55:25;;;;;;;17.48;5.03;;;;;;;12.09;100.00;100915.44;2082556;28;20072;-76
2023/03/18 01:56:50;;;;;;;20.42;5.63;;;;;;;12.06;100.00;100915.41;2077532;28;20837;-76
2023/03/18 01:58:18;;;;;;;20.65;5.75;;;;;;;12.02;100.00;100918.88;2083410;28;20033;-76
2023/03/18 01:59:41;;;;;;;16.17;5.35;;;;;;;11.94;100.00;100914.41;2082380;28;20053;-77
2023/03/18 02:01:10;;;;;;;10.68;4.40;;;;;;;11.89;100.00;100924.03;2084526;28;20037;-77
2023/03/18 02:02:32;;;;;;;19.30;5.30;;;;;;;11.82;100.00;100924.81;2083563;28;20060;-77
2023/03/18 02:03:55;;;;;;;16.92;5.20;;;;;;;11.79;100.00;100926.53;2077441;28;20398;-76
2023/03/18 02:05:23;;;;;;;19.55;6.70;;;;;;;11.79;100.00;100927.44;2090564;28;20117;-77
2023/03/18 02:06:45;;;;;;;20.35;6.40;;;;;;;11.83;100.00;100930.97;2086135;28;20084;-76
2023/03/18 02:08:09;;;;;;;20.67;5.38;;;;;;;11.85;100.00;100931.91;2080385;28;20117;-76
2023/03/18 02:09:31;;;;;;;17.88;6.53;;;;;;;11.85;100.00;100939.84;2090157;28;20040;-75
2023/03/18 02:10:54;;;;;;;20.77;6.15;;;;;;;11.86;100.00;100939.88;2084611;28;20118;-76
2023/03/18 02:12:21;;;;;;;16.63;5.95;;;;;;;11.89;100.00;100942.53;2077302;28;20049;-76
2023/03/18 02:13:45;;;;;;;15.05;4.97;;;;;;;11.87;100.00;100936.34;2091957;28;20111;-75
2023/03/18 02:15:10;;;;;;;19.05;5.97;;;;;;;11.88;100.00;100935.47;2090738;28;20106;-75
2023/03/18 02:16:40;;;;;;;17.10;4.85;;;;;;;11.87;100.00;100935.47;2075919;28;20425;-76
2023/03/18 02:18:07;;;;;;;16.85;5.88;;;;;;;11.88;100.00;100932.81;2084509;28;20118;-76
2023/03/18 02:19:41;;;;;;;18.58;5.65;;;;;;;11.86;100.00;100933.69;2079285;28;20072;-75
2023/03/18 02:21:21;;;;;;;17.45;4.95;;;;;;;11.85;100.00;100938.09;2091385;28;20480;-76
2023/03/18 02:22:51;;;;;;;17.60;5.07;;;;;;;11.84;100.00;100946.88;2087022;28;20044;-75
2023/03/18 02:24:24;;;;;;;21.75;5.30;;;;;;;11.85;100.00;100946.03;2086169;28;20051;-75
2023/03/18 02:25:54;;;;;;;15.90;5.80;;;;;;;11.86;100.00;100941.63;2078330;28;20042;-75
2023/03/18 02:27:19;;;;;;;16.77;4.80;;;;;;;11.86;100.00;100945.16;2078127;28;20053;-75
2023/03/18 02:28:44;;;;;;;21.80;5.93;;;;;;;11.86;100.00;100938.97;2080569;28;20048;-75
2023/03/18 02:30:11;;;;;;;13.63;4.68;;;;;;;11.84;100.00;100938.06;2081835;28;20081;-76
2023/03/18 02:31:37;;;;;;;14.18;4.95;;;;;;;11.78;100.00;100936.22;2085291;28;20069;-75
2023/03/18 02:33:00;;;;;;;15.70;4.22;;;;;;;11.76;100.00;100934.41;2081067;28;20118;-75
2023/03/18 02:34:25;;;;;;;14.27;4.88;;;;;;;11.73;100.00;100932.59;2082678;28;20057;-75
2023/03/18 02:35:53;;;;;;;14.95;4.53;;;;;;;11.72;100.00;100936.09;2082247;28;20423;-74
2023/03/18 02:37:16;;;;;;;17.25;4.18;;;;;;;11.68;100.00;100939.59;2088143;28;20425;-74
2023/03/18 02:38:40;;;;;;;19.25;5.07;;;;;;;11.67;100.00;100936.91;2086114;28;20108;-74
2023/03/18 02:40:15;;;;;;;11.98;4.10;;;;;;;11.65;100.00;100942.19;2084982;28;20045;-74
2023/03/18 02:41:37;;;;;;;19.17;9.25;;;;;;;11.63;100.00;100946.53;2086466;28;20045;-75
2023/03/18 02:43:18;;;;;;;20.25;8.50;;;;;;;11.63;100.00;100943.00;2092510;28;20082;-75
2023/03/18 02:44:47;;;;;;;18.17;9.80;;;;;;;11.63;100.00;100945.66;2086073;28;20077;-75
2023/03/18 02:46:39;;;;;;;16.75;7.25;;;;;;;11.62;100.00;100959.78;2097369;28;20079;-75
2023/03/18 02:48:07;;;;;;;17.63;6.78;;;;;;;11.61;100.00;100956.25;2086981;28;20453;-75
2023/03/18 02:49:31;;;;;;;21.77;9.02;;;;;;;11.61;100.00;100953.59;2084065;28;20045;-75
2023/03/18 02:50:53;;;;;;;16.15;7.50;;;;;;;11.61;100.00;100952.69;2083995;28;20049;-74
2023/03/18 02:52:15;;;;;;;15.52;6.65;;;;;;;11.59;100.00;100956.22;2084023;28;20056;-74
2023/03/18 02:53:37;;;;;;;13.05;6.90;;;;;;;11.62;100.00;100950.06;2089730;28;20044;-75
2023/03/18 02:55:00;;;;;;;11.88;5.80;;;;;;;11.65;100.00;100944.81;2084776;28;20095;-75
2023/03/18 02:56:23;;;;;;;18.27;5.63;;;;;;;11.68;100.00;100955.47;2083711;28;20037;-74
2023/03/18 02:57:45;;;;;;;17.40;5.00;;;;;;;11.71;100.00;100952.84;2075507;28;20088;-74
2023/03/18 02:59:11;;;;;;;17.52;5.28;;;;;;;11.73;100.00;100945.81;2081981;28;20048;-74
2023/03/18 03:00:33;;;;;;;13.93;4.80;;;;;;;11.75;100.00;100951.19;2095198;28;20048;-75
2023/03/18 03:01:56;;;;;;;13.27;4.53;;;;;;;11.76;100.00;100952.94;2084010;28;20084;-74
2023/03/18 03:03:17;;;;;;;15.90;5.20;;;;;;;11.77;100.00;100962.66;2084214;28;20045;-74
2023/03/18 03:04:40;;;;;;;15.98;7.65;;;;;;;11.77;100.00;100966.19;2085924;28;20069;-74
2023/03/18 03:06:02;;;;;;;17.15;8.43;;;;;;;11.79;100.00;100963.56;2086493;28;20099;-74
2023/03/18 03:07:26;;;;;;;16.02;7.38;;;;;;;11.81;100.00;100965.38;2079634;28;20382;-75
2023/03/18 03:08:48;;;;;;;15.85;5.55;;;;;;;11.78;100.00;100948.56;2097570;28;20044;-74
2023/03/18 03:10:12;;;;;;;12.65;5.55;;;;;;;11.77;100.00;100955.59;2080654;28;20050;-74
2023/03/18 03:11:35;;;;;;;11.38;5.22;;;;;;;11.76;100.00;100960.88;2080190;28;20041;-74
2023/03/18 03:13:08;;;;;;;14.50;5.97;;;;;;;11.74;100.00;100963.50;2086899;28;20049;-74
2023/03/18 03:14:33;;;;;;;17.63;6.40;;;;;;;11.72;100.00;100951.97;2081358;28;20045;-74
2023/03/18 03:15:56;;;;;;;13.40;4.45;;;;;;;11.69;100.00;100940.44;2092128;28;20119;-74
2023/03/18 03:17:19;;;;;;;11.27;3.58;;;;;;;11.65;100.00;100938.66;2102877;28;20077;-73
2023/03/18 03:18:40;;;;;;;14.70;4.22;;;;;;;11.64;100.00;100963.31;2086585;28;20045;-74
2023/03/18 03:20:07;;;;;;;17.05;4.80;;;;;;;11.62;100.00;100944.75;2078691;28;20038;-74
2023/03/18 03:21:29;;;;;;;12.50;4.03;;;;;;;11.61;100.00;100965.91;2078237;28;20042;-74
2023/03/18 03:22:52;;;;;;;13.48;3.70;;;;;;;11.58;100.00;100965.00;2080449;28;20402;-74
2023/03/18 03:24:14;;;;;;;13.10;3.90;;;;;;;11.58;100.00;100966.75;2080658;28;20049;-74
2023/03/18 03:25:36;;;;;;;11.70;4.03;;;;;;;11.61;100.00;100960.63;2086703;28;20048;-74
2023/03/18 03:26:58;;;;;;;15.55;5.00;;;;;;;11.63;100.00;100973.00;2085450;28;20088;-74
2023/03/18 03:28:20;;;;;;;13.68;6.68;;;;;;;11.65;100.00;100960.69;2087828;28;20057;-74
2023/03/18 03:29:44;;;;;;;22.25;6.43;;;;;;;11.67;100.00;100969.53;2091832;28;20145;-74
2023/03/18 03:31:06;;;;;;;14.38;6.43;;;;;;;11.67;100.00;100966.91;2087906;28;20521;-74
2023/03/18 03:32:30;;;;;;;12.45;5.55;;;;;;;11.69;100.00;100975.72;2086019;28;20136;-73
2023/03/18 03:33:52;;;;;;;13.32;5.32;;;;;;;11.71;100.00;100971.34;2085388;28;20056;-73
2023/03/18 03:35:17;;;;;;;16.77;5.78;;;;;;;11.73;100.00;100974.03;2091083;28;20049;-74
2023/03/18 03:36:40;;;;;;;15.60;5.00;;;;;;;11.73;100.00;100974.91;2085733;28;20489;-74
2023/03/18 03:38:01;;;;;;;14.45;4.45;;;;;;;11.74;100.00;100966.16;2083693;28;20064;-73
2023/03/18 03:39:24;;;;;;;12.73;4.10;;;;;;;11.76;100.00;100971.44;2082296;28;20107;-73
2023/03/18 03:40:48;;;;;;;12.20;4.10;;;;;;;11.77;100.00;100966.19;2077741;28;20115;-73
2023/03/18 03:42:10;;;;;;;9.40;3.88;;;;;;;11.77;100.00;100966.19;2083882;28;20055;-72
2023/03/18 03:43:32;;;;;;;;;;;;;;;11.73;100.00;100974.91;2094512;28;20055;-73
2023/03/18 03:44:55;;;;;;;13.75;3.83;;;;;;;11.74;100.00;100974.09;2092883;28;19920;-72
2023/03/18 03:46:18;;;;;;;10.85;3.45;;;;;;;11.75;100.00;100970.56;2086112;28;20041;-73
2023/03/18 03:47:40;;;;;;;12.00;3.22;;;;;;;11.77;100.00;100983.81;2086243;28;20053;-73
2023/03/18 03:49:02;;;;;;;;;;;;;;;11.72;100.00;100982.81;2089331;28;20054;-73
2023/03/18 03:50:23;;;;;;;11.88;3.65;;;;;;;11.73;100.00;100977.56;2085159;28;19924;-73
2023/03/18 03:51:46;;;;;;;8.80;2.60;;;;;;;11.74;100.00;100968.81;2075168;28;20068;-73
2023/03/18 03:53:09;;;;;;;11.57;3.15;;;;;;;11.75;100.00;100978.47;2081044;28;20128;-73
2023/03/18 03:54:31;;;;;;;10.57;3.30;;;;;;;11.78;100.00;100972.34;2084340;28;20045;-73
2023/03/18 03:55:54;;;;;;;10.30;2.83;;;;;;;11.78;100.00;100980.28;2080493;28;20061;-73
2023/03/18 03:57:16;;;;;;;9.48;3.10;;;;;;;11.81;100.00;100973.31;2074965;28;20428;-73
2023/03/18 03:58:39;;;;;;;12.50;3.35;;;;;;;11.81;100.00;100977.72;2090708;28;20504;-72
2023/03/18 04:00:03;;;;;;;12.68;3.38;;;;;;;11.83;100.00;100966.25;2085116;28;20554;-72
2023/03/18 04:01:42;;;;;;;10.27;3.20;;;;;;;11.81;100.00;100968.03;2088456;28;20080;-73
2023/03/18 04:03:03;;;;;;;10.60;3.20;;;;;;;11.83;100.00;100973.31;2080790;28;20051;-72
2023/03/18 04:04:26;;;;;;;11.88;3.97;;;;;;;11.85;100.00;100976.88;2082736;28;20078;-72
2023/03/18 04:05:49;;;;;;;10.35;2.80;;;;;;;11.85;100.00;100982.16;2086430;28;20083;-72
2023/03/18 04:07:14;;;;;;;13.10;3.38;;;;;;;11.87;100.00;100981.31;2085632;28;20049;-72
2023/03/18 04:08:36;;;;;;;12.77;3.15;;;;;;;11.90;100.00;100978.69;2085442;28;20167;-72
2023/03/18 04:09:57;;;;;;;13.40;3.22;;;;;;;11.90;100.00;100977.81;2090972;28;20059;-73
2023/03/18 04:11:20;;;;;;;9.50;3.08;;;;;;;11.91;100.00;100983.13;2082980;28;20580;-72
2023/03/18 04:12:44;;;;;;;16.23;3.55;;;;;;;11.93;100.00;100985.81;2079507;28;20045;-72
2023/03/18 04:14:08;;;;;;;13.07;3.05;;;;;;;11.95;100.00;100989.34;2089818;28;20040;-71
2023/03/18 04:15:32;;;;;;;12.65;2.95;;;;;;;11.96;100.00;100993.75;2094423;28;20052;-72
2023/03/18 04:16:59;;;;;;;13.27;3.17;;;;;;;11.96;100.00;100992.00;2080099;28;20072;-72
2023/03/18 04:18:24;;;;;;;12.95;2.72;;;;;;;11.95;100.00;100987.59;2083502;28;20057;-72
2023/03/18 04:19:46;;;;;;;9.75;2.40;;;;;;;11.94;100.00;100979.66;2083503;28;20087;-72
2023/03/18 04:21:09;;;;;;;8.80;2.72;;;;;;;11.93;100.00;100988.44;2082301;28;20052;-71
2023/03/18 04:22:35;;;;;;;11.20;2.47;;;;;;;11.93;100.00;100985.81;2084829;28;20079;-72
2023/03/18 04:24:02;;;;;;;10.85;3.13;;;;;;;11.89;100.00;100979.56;2082565;28;20073;-72
2023/03/18 04:25:25;;;;;;;11.18;2.83;;;;;;;11.90;100.00;100983.09;2083949;28;20048;-72
2023/03/18 04:26:49;;;;;;;11.38;2.67;;;;;;;11.88;100.00;100985.72;2086295;28;20106;-71
2023/03/18 04:28:11;;;;;;;11.18;2.88;;;;;;;11.90;100.00;100991.03;2082764;28;20033;-71
2023/03/18 04:29:32;;;;;;;10.73;3.35;;;;;;;11.91;100.00;100993.72;2075062;28;20103;-72
2023/03/18 04:30:58;;;;;;;13.43;2.75;;;;;;;11.93;100.00;100993.75;2083344;28;20099;-72
2023/03/18 04:32:20;;;;;;;15.30;3.30;;;;;;;11.93;100.00;100988.44;2077745;28;20073;-71
2023/03/18 04:33:43;;;;;;;9.57;2.80;;;;;;;11.94;100.00;100992.88;2080067;28;20056;-71
2023/03/18 04:35:06;;;;;;;14.10;2.88;;;;;;;11.94;100.00;101001.72;2090844;28;20052;-71
2023/03/18 04:36:29;;;;;;;11.85;3.38;;;;;;;11.95;100.00;101010.50;2084756;28;20755;-71
2023/03/18 04:37:51;;;;;;;12.65;2.92;;;;;;;11.94;100.00;101004.34;2090993;28;20109;-72
2023/03/18 04:39:14;;;;;;;11.20;3.15;;;;;;;11.94;100.00;101009.66;2089750;28;20048;-71
2023/03/18 04:40:35;;;;;;;8.10;2.60;;;;;;;11.92;100.00;100998.16;2083243;28;20141;-71
2023/03/18 04:41:58;;;;;;;12.95;2.78;;;;;;;11.90;100.00;101020.13;2076549;28;20053;-71
2023/03/18 04:43:21;;;;;;;14.45;2.58;;;;;;;11.90;100.00;101018.38;2075608;28;20184;-71
2023/03/18 04:44:44;;;;;;;9.93;2.47;;;;;;;11.91;100.00;101021.91;2086025;28;20073;-71
2023/03/18 04:46:09;;;;;;;9.88;2.50;;;;;;;11.89;100.00;101019.25;2085393;28;20053;-71
2023/03/18 04:47:32;;;;;;;8.48;2.35;;;;;;;11.91;100.00;101021.91;2076446;28;20054;-71
2023/03/18 04:48:54;;;;;;;7.50;2.20;;;;;;;11.91;100.00;101025.47;2081234;28;20106;-71
2023/03/18 04:50:17;;;;;;;9.10;2.38;;;;;;;11.93;100.00;101014.91;2085730;28;20086;-71
2023/03/18 04:51:39;;;;;;;7.60;2.60;;;;;;;11.92;100.00;101027.25;2087491;28;20052;-71
2023/03/18 04:53:10;;;;;;;8.95;2.28;;;;;;;11.93;100.00;101028.13;2078219;28;20045;-69
2023/03/18 04:54:32;;;;;;;9.23;2.58;;;;;;;11.94;100.00;101029.91;2089355;28;20040;-71
2023/03/18 04:55:59;;;;;;;9.80;2.72;;;;;;;11.95;100.00;101024.63;2081530;28;20051;-70
2023/03/18 04:57:30;;;;;;;9.35;2.53;;;;;;;11.94;100.00;101022.88;2075953;28;20054;-71
2023/03/18 04:58:53;;;;;;;14.13;3.45;;;;;;;11.98;100.00;101026.44;2084068;28;20132;-71
2023/03/18 05:00:21;;;;;;;9.70;2.88;;;;;;;12.00;100.00;101029.09;2078595;28;20088;-71
2023/03/18 05:01:48;;;;;;;13.45;3.60;;;;;;;12.04;100.00;101031.81;2085564;28;20049;-70
2023/03/18 05:03:11;;;;;;;13.02;3.20;;;;;;;12.06;100.00;101039.78;2085962;28;20075;-71
2023/03/18 05:04:33;;;;;;;14.50;3.33;;;;;;;12.07;100.00;101026.56;2077255;28;20049;-71
2023/03/18 05:05:55;;;;;;;12.50;3.60;;;;;;;12.08;100.00;101016.88;2083333;28;20400;-71
2023/03/18 05:07:26;;;;;;;12.50;4.00;;;;;;;12.08;100.00;101028.31;2084030;28;20080;-71
2023/03/18 05:08:57;;;;;;;13.52;3.10;;;;;;;12.09;100.00;101031.88;2079641;28;20126;-71
2023/03/18 05:10:23;;;;;;;12.80;3.42;;;;;;;12.11;100.00;101033.69;2085456;28;20051;-71
2023/03/18 05:11:45;;;;;;;12.00;3.63;;;;;;;12.13;100.00;101039.00;2085586;28;20143;-71
2023/03/18 05:13:18;;;;;;;7.80;2.60;;;;;;;12.13;100.00;101033.72;2078310;28;20048;-72
2023/03/18 05:14:40;;;;;;;11.00;3.13;;;;;;;12.13;100.00;101033.72;2079076;28;20056;-70
2023/03/18 05:16:03;;;;;;;7.03;3.47;;;;;;;12.14;100.00;101032.84;2082852;28;20521;-71
2023/03/18 05:17:27;;;;;;;15.43;3.47;;;;;;;12.13;100.00;101033.72;2086632;28;20045;-71
2023/03/18 05:18:54;;;;;;;10.80;3.13;;;;;;;12.11;100.00;101046.00;2080125;28;20049;-71
2023/03/18 05:20:15;;;;;;;10.10;3.15;;;;;;;12.10;100.00;101045.13;2085507;28;20121;-71
2023/03/18 05:21:40;;;;;;;11.15;4.60;;;;;;;12.10;100.00;101047.78;2090504;28;20057;-71
2023/03/18 05:23:03;;;;;;;12.85;3.72;;;;;;;12.11;100.00;101046.91;2089741;28;20053;-71
2023/03/18 05:24:36;;;;;;;11.30;3.30;;;;;;;12.10;100.00;101044.22;2086590;28;20048;-71
2023/03/18 05:25:58;;;;;;;10.02;3.10;;;;;;;12.11;100.00;101051.31;2083202;28;20302;-72
2023/03/18 05:27:23;;;;;;;8.38;3.20;;;;;;;12.14;100.00;101061.94;2084666;28;20493;-71
2023/03/18 05:28:54;;;;;;;9.52;2.70;;;;;;;12.11;100.00;101053.97;2081723;28;20051;-71
2023/03/18 05:30:25;;;;;;;10.30;3.78;;;;;;;12.12;100.00;101053.09;2083482;28;20500;-71
2023/03/18 05:31:47;;;;;;;11.80;2.72;;;;;;;12.14;100.00;101062.81;2083597;28;20076;-71
2023/03/18 05:33:12;;;;;;;;;;;;;;;12.10;100.00;101061.00;2081924;28;20118;-71
2023/03/18 05:34:53;;;;;;;8.68;3.00;;;;;;;12.15;100.00;101061.06;2079510;28;19921;-71
2023/03/18 05:36:16;;;;;;;8.48;2.65;;;;;;;12.18;100.00;101069.06;2085580;28;20715;-71
2023/03/18 05:37:58;;;;;;;9.70;2.28;;;;;;;12.17;100.00;101046.09;2091255;28;20066;-71
2023/03/18 05:39:20;;;;;;;8.95;2.58;;;;;;;12.17;100.00;101056.69;2089254;28;20037;-71
2023/03/18 05:40:42;;;;;;;9.57;2.72;;;;;;;12.15;100.00;101067.25;2088519;28;20528;-72
2023/03/18 05:42:18;;;;;;;11.05;2.80;;;;;;;12.16;100.00;101065.47;2086328;28;20040;-71
2023/03/18 05:43:41;;;;;;;8.50;3.10;;;;;;;12.18;100.00;101059.34;2077502;28;20060;-71
2023/03/18 05:45:03;;;;;;;10.93;2.40;;;;;;;12.23;100.00;101064.69;2090716;28;20040;-71
2023/03/18 05:46:27;;;;;;;9.60;2.85;;;;;;;12.25;100.00;101050.63;2077530;28;20053;-71
2023/03/18 05:48:15;;;;;;;9.68;3.00;;;;;;;12.26;100.00;101067.41;2087569;28;20041;-71
2023/03/18 05:49:47;;;;;;;9.88;2.60;;;;;;;12.26;100.00;101076.25;2085598;28;20049;-71
2023/03/18 05:51:13;;;;;;;9.48;2.67;;;;;;;12.26;100.00;101075.34;2083601;28;20501;-71
2023/03/18 05:52:37;;;;;;;11.00;2.45;;;;;;;12.25;100.00;101079.75;2083855;28;20055;-70
2023/03/18 05:54:03;;;;;;;10.38;2.95;;;;;;;12.25;100.00;101081.50;2087009;28;20057;-71
2023/03/18 05:55:30;;;;;;;11.77;2.92;;;;;;;12.23;100.00;101077.94;2078886;28;20073;-71
2023/03/18 05:56:55;;;;;;;17.67;6.50;;;;;;;12.21;100.00;101095.53;2081072;28;20067;-71
2023/03/18 05:58:18;;;;;;;21.90;9.38;;;;;;;12.20;100.00;101096.44;2083148;28;20136;-71
2023/03/18 05:59:44;;;;;;;20.42;8.20;;;;;;;12.19;100.00;101099.94;2084030;28;20475;-71
2023/03/18 06:01:06;;;;;;;21.27;9.98;;;;;;;12.17;100.00;101088.44;2081560;28;20099;-71
2023/03/18 06:02:28;;;;;;;22.77;11.05;;;;;;;12.17;100.00;101106.97;2081003;28;20631;-70
2023/03/18 06:03:54;;;;;;;22.20;10.23;;;;;;;12.18;100.00;101100.81;2085562;28;20052;-71
2023/03/18 06:05:15;;;;;;;18.20;7.35;;;;;;;12.18;100.00;101103.47;2077658;28;20041;-70
2023/03/18 06:06:39;;;;;;;15.27;7.10;;;;;;;12.19;100.00;101097.31;2078283;28;20046;-71
2023/03/18 06:08:01;;;;;;;15.90;5.78;;;;;;;12.17;100.00;101114.91;2081765;28;20074;-71
2023/03/18 06:09:25;;;;;;;11.95;3.72;;;;;;;12.17;100.00;101114.91;2089509;28;20068;-71
2023/03/18 06:10:48;;;;;;;14.00;4.38;;;;;;;12.15;100.00;101122.81;2091650;28;20048;-71
2023/03/18 06:12:11;;;;;;;17.15;5.40;;;;;;;12.15;100.00;101120.16;2087722;28;20083;-71
2023/03/18 06:13:34;;;;;;;15.23;5.63;;;;;;;12.16;100.00;101131.66;2085091;28;20518;-71
2023/03/18 06:14:56;;;;;;;13.15;6.40;;;;;;;12.16;100.00;101124.59;2085341;28;20057;-70
2023/03/18 06:16:19;;;;;;;17.42;8.43;;;;;;;12.17;100.00;101126.38;2091808;28;20678;-71
2023/03/18 06:17:40;;;;;;;19.25;9.40;;;;;;;12.20;100.00;101131.75;2084119;28;20060;-71
2023/03/18 06:19:05;;;;;;;;;;;;;;;12.15;100.00;101138.69;2091240;28;20052;-71
2023/03/18 06:20:28;;;;;;;11.45;6.20;;;;;;;12.18;100.00;101125.53;2086918;28;19931;-70
2023/03/18 06:21:50;;;;;;;27.02;7.88;;;;;;;12.20;100.00;101131.75;2087205;28;20424;-71
2023/03/18 06:23:13;;;;;;;12.85;3.55;;;;;;;12.20;100.00;101129.09;2091325;28;20044;-71
2023/03/18 06:24:35;;;;;;;10.10;3.70;;;;;;;12.21;100.00;101129.94;2080386;28;20526;-71
2023/03/18 06:25:57;;;;;;;15.07;4.47;;;;;;;12.23;100.00;101133.53;2083599;28;20425;-70